Distington, United Kingdom
Current Conditions -  °F | °C
As of 7:50 AM on Tuesday 27 Jan 2015 (Local Time) from EGOM Reporting Station
Drizzle Drizzle  
Wind Chill: 30°   Ceiling: Unl
Heat Index: 39°   Visibility: 0.09mi
Dew Point: 39°   Wind: 16mph
Humidity: 100%   Direction: 260°W
Pressure: 30.18"   Gusts: NA
Location:  54.6°N, 3.54°W
Report Text: EGOM 270750Z AUTO 26014KT 0150 -DZ VV/// 04/04 Q1022
Loading
Personal Weather Stations






























Interactive Weather Map New forecast layout! Learn more

10-Day Weather Forecast

Advertisements
Track Severe Weather on mobile